sensor_id;sensor_type;location;lat;lon;timestamp;P1;durP1;ratioP1;P2;durP2;ratioP2
20972;SDS011;10645;52.370;13.314;2023-08-30T00:00:55;4.03;;;0.98;;
20972;SDS011;10645;52.370;13.314;2023-08-30T00:03:22;1.23;;;1.10;;
20972;SDS011;10645;52.370;13.314;2023-08-30T00:05:48;1.10;;;1.02;;
20972;SDS011;10645;52.370;13.314;2023-08-30T00:08:14;0.63;;;0.60;;
20972;SDS011;10645;52.370;13.314;2023-08-30T00:10:44;1.40;;;1.30;;
20972;SDS011;10645;52.370;13.314;2023-08-30T00:13:11;1.30;;;1.17;;
20972;SDS011;10645;52.370;13.314;2023-08-30T00:15:37;1.13;;;1.05;;
20972;SDS011;10645;52.370;13.314;2023-08-30T00:18:03;1.08;;;0.98;;
20972;SDS011;10645;52.370;13.314;2023-08-30T00:20:29;1.55;;;0.75;;
20972;SDS011;10645;52.370;13.314;2023-08-30T00:22:56;1.48;;;0.85;;
20972;SDS011;10645;52.370;13.314;2023-08-30T00:25:22;1.10;;;1.00;;
20972;SDS011;10645;52.370;13.314;2023-08-30T00:27:48;2.58;;;0.98;;
20972;SDS011;10645;52.370;13.314;2023-08-30T00:30:14;1.15;;;0.88;;
20972;SDS011;10645;52.370;13.314;2023-08-30T00:32:40;0.75;;;0.75;;
20972;SDS011;10645;52.370;13.314;2023-08-30T00:35:07;1.17;;;0.90;;
20972;SDS011;10645;52.370;13.314;2023-08-30T00:37:33;6.40;;;1.45;;
20972;SDS011;10645;52.370;13.314;2023-08-30T00:39:59;2.17;;;1.15;;
20972;SDS011;10645;52.370;13.314;2023-08-30T00:42:26;1.25;;;1.15;;
20972;SDS011;10645;52.370;13.314;2023-08-30T00:44:53;2.55;;;1.67;;
20972;SDS011;10645;52.370;13.314;2023-08-30T00:47:19;1.10;;;1.02;;
20972;SDS011;10645;52.370;13.314;2023-08-30T00:49:46;0.98;;;0.60;;
20972;SDS011;10645;52.370;13.314;2023-08-30T00:52:12;1.45;;;1.30;;
20972;SDS011;10645;52.370;13.314;2023-08-30T00:54:39;1.02;;;0.93;;
20972;SDS011;10645;52.370;13.314;2023-08-30T00:57:05;1.23;;;1.13;;
20972;SDS011;10645;52.370;13.314;2023-08-30T00:59:32;0.70;;;0.70;;
20972;SDS011;10645;52.370;13.314;2023-08-30T01:01:59;1.73;;;1.08;;
20972;SDS011;10645;52.370;13.314;2023-08-30T01:04:27;1.08;;;0.98;;
20972;SDS011;10645;52.370;13.314;2023-08-30T01:06:53;0.82;;;0.82;;
20972;SDS011;10645;52.370;13.314;2023-08-30T01:09:19;0.80;;;0.80;;
20972;SDS011;10645;52.370;13.314;2023-08-30T01:11:52;0.73;;;0.70;;
20972;SDS011;10645;52.370;13.314;2023-08-30T01:17:20;0.73;;;0.73;;
20972;SDS011;10645;52.370;13.314;2023-08-30T01:19:57;1.25;;;1.15;;
20972;SDS011;10645;52.370;13.314;2023-08-30T01:25:27;1.50;;;1.25;;
20972;SDS011;10645;52.370;13.314;2023-08-30T01:28:08;1.65;;;1.20;;
20972;SDS011;10645;52.370;13.314;2023-08-30T01:30:37;2.00;;;1.75;;
20972;SDS011;10645;52.370;13.314;2023-08-30T01:33:05;0.95;;;0.85;;
20972;SDS011;10645;52.370;13.314;2023-08-30T01:35:33;1.10;;;1.00;;
20972;SDS011;10645;52.370;13.314;2023-08-30T01:38:05;0.80;;;0.80;;
20972;SDS011;10645;52.370;13.314;2023-08-30T01:40:35;1.70;;;1.60;;
20972;SDS011;10645;52.370;13.314;2023-08-30T01:43:02;0.90;;;0.80;;
20972;SDS011;10645;52.370;13.314;2023-08-30T01:45:32;0.60;;;0.60;;
20972;SDS011;10645;52.370;13.314;2023-08-30T01:48:00;1.45;;;1.35;;
20972;SDS011;10645;52.370;13.314;2023-08-30T01:50:27;0.80;;;0.70;;
20972;SDS011;10645;52.370;13.314;2023-08-30T01:52:53;1.38;;;0.85;;
20972;SDS011;10645;52.370;13.314;2023-08-30T01:55:21;1.02;;;0.93;;
20972;SDS011;10645;52.370;13.314;2023-08-30T01:57:48;0.98;;;0.73;;
20972;SDS011;10645;52.370;13.314;2023-08-30T02:00:15;0.60;;;0.60;;
20972;SDS011;10645;52.370;13.314;2023-08-30T02:02:41;1.08;;;0.95;;
20972;SDS011;10645;52.370;13.314;2023-08-30T02:05:07;3.13;;;0.80;;
20972;SDS011;10645;52.370;13.314;2023-08-30T02:08:21;1.30;;;1.20;;
20972;SDS011;10645;52.370;13.314;2023-08-30T02:10:40;1.17;;;1.13;;
20972;SDS011;10645;52.370;13.314;2023-08-30T02:13:10;1.17;;;1.08;;
20972;SDS011;10645;52.370;13.314;2023-08-30T02:15:37;0.88;;;0.88;;
20972;SDS011;10645;52.370;13.314;2023-08-30T02:18:07;4.35;;;1.40;;
20972;SDS011;10645;52.370;13.314;2023-08-30T02:20:34;1.25;;;1.10;;
20972;SDS011;10645;52.370;13.314;2023-08-30T02:23:00;1.10;;;1.00;;
20972;SDS011;10645;52.370;13.314;2023-08-30T02:25:26;1.58;;;0.57;;
20972;SDS011;10645;52.370;13.314;2023-08-30T02:27:54;0.75;;;0.70;;
20972;SDS011;10645;52.370;13.314;2023-08-30T02:30:20;4.60;;;1.25;;
20972;SDS011;10645;52.370;13.314;2023-08-30T02:32:46;3.08;;;1.95;;
20972;SDS011;10645;52.370;13.314;2023-08-30T02:35:12;0.93;;;0.93;;
20972;SDS011;10645;52.370;13.314;2023-08-30T02:37:38;0.90;;;0.90;;
20972;SDS011;10645;52.370;13.314;2023-08-30T02:40:06;1.08;;;1.00;;
20972;SDS011;10645;52.370;13.314;2023-08-30T02:42:32;1.38;;;1.27;;
20972;SDS011;10645;52.370;13.314;2023-08-30T02:44:59;0.50;;;0.50;;
20972;SDS011;10645;52.370;13.314;2023-08-30T02:47:25;1.45;;;1.25;;
20972;SDS011;10645;52.370;13.314;2023-08-30T02:49:51;1.08;;;0.93;;
20972;SDS011;10645;52.370;13.314;2023-08-30T02:52:17;6.93;;;1.65;;
20972;SDS011;10645;52.370;13.314;2023-08-30T02:54:43;0.90;;;0.65;;
20972;SDS011;10645;52.370;13.314;2023-08-30T02:57:09;1.17;;;1.08;;
20972;SDS011;10645;52.370;13.314;2023-08-30T02:59:35;1.15;;;1.05;;
20972;SDS011;10645;52.370;13.314;2023-08-30T03:02:04;1.05;;;0.68;;
20972;SDS011;10645;52.370;13.314;2023-08-30T03:04:31;4.05;;;1.63;;
20972;SDS011;10645;52.370;13.314;2023-08-30T03:06:57;1.63;;;1.38;;
20972;SDS011;10645;52.370;13.314;2023-08-30T03:09:26;1.50;;;1.40;;
20972;SDS011;10645;52.370;13.314;2023-08-30T03:11:52;2.33;;;1.77;;
20972;SDS011;10645;52.370;13.314;2023-08-30T03:14:18;3.30;;;1.73;;
20972;SDS011;10645;52.370;13.314;2023-08-30T03:16:44;1.40;;;1.30;;
20972;SDS011;10645;52.370;13.314;2023-08-30T03:19:12;1.58;;;1.10;;
20972;SDS011;10645;52.370;13.314;2023-08-30T03:21:39;1.85;;;1.70;;
20972;SDS011;10645;52.370;13.314;2023-08-30T03:24:06;1.90;;;1.75;;
20972;SDS011;10645;52.370;13.314;2023-08-30T03:26:34;1.38;;;1.27;;
20972;SDS011;10645;52.370;13.314;2023-08-30T03:29:01;2.65;;;1.63;;
20972;SDS011;10645;52.370;13.314;2023-08-30T03:31:27;1.85;;;1.52;;
20972;SDS011;10645;52.370;13.314;2023-08-30T03:33:53;1.90;;;1.73;;
20972;SDS011;10645;52.370;13.314;2023-08-30T03:36:19;2.10;;;1.83;;
20972;SDS011;10645;52.370;13.314;2023-08-30T03:38:45;2.90;;;1.92;;
20972;SDS011;10645;52.370;13.314;2023-08-30T03:41:12;16.20;;;12.57;;
20972;SDS011;10645;52.370;13.314;2023-08-30T03:43:38;15.50;;;10.10;;
20972;SDS011;10645;52.370;13.314;2023-08-30T03:46:05;36.35;;;19.42;;
20972;SDS011;10645;52.370;13.314;2023-08-30T03:48:32;12.23;;;8.18;;
20972;SDS011;10645;52.370;13.314;2023-08-30T03:50:58;17.05;;;14.00;;
20972;SDS011;10645;52.370;13.314;2023-08-30T03:53:24;29.25;;;19.20;;
20972;SDS011;10645;52.370;13.314;2023-08-30T03:55:50;14.18;;;12.57;;
20972;SDS011;10645;52.370;13.314;2023-08-30T03:58:20;8.52;;;7.47;;
20972;SDS011;10645;52.370;13.314;2023-08-30T04:00:46;3.33;;;2.58;;
20972;SDS011;10645;52.370;13.314;2023-08-30T04:03:13;1.85;;;1.63;;
20972;SDS011;10645;52.370;13.314;2023-08-30T04:05:40;3.35;;;1.98;;
20972;SDS011;10645;52.370;13.314;2023-08-30T04:08:07;1.63;;;1.50;;
20972;SDS011;10645;52.370;13.314;2023-08-30T04:10:34;1.35;;;1.25;;
20972;SDS011;10645;52.370;13.314;2023-08-30T04:13:02;2.25;;;1.30;;
20972;SDS011;10645;52.370;13.314;2023-08-30T04:15:29;1.02;;;0.68;;
20972;SDS011;10645;52.370;13.314;2023-08-30T04:17:57;1.20;;;1.10;;
20972;SDS011;10645;52.370;13.314;2023-08-30T04:20:23;1.27;;;0.93;;
20972;SDS011;10645;52.370;13.314;2023-08-30T04:22:50;0.73;;;0.73;;
20972;SDS011;10645;52.370;13.314;2023-08-30T04:25:16;0.90;;;0.90;;
20972;SDS011;10645;52.370;13.314;2023-08-30T04:27:43;1.30;;;1.15;;
20972;SDS011;10645;52.370;13.314;2023-08-30T04:30:09;1.58;;;1.15;;
20972;SDS011;10645;52.370;13.314;2023-08-30T04:32:36;1.13;;;0.98;;
20972;SDS011;10645;52.370;13.314;2023-08-30T04:35:02;1.38;;;1.27;;
20972;SDS011;10645;52.370;13.314;2023-08-30T04:37:31;1.33;;;1.08;;
20972;SDS011;10645;52.370;13.314;2023-08-30T04:39:58;1.70;;;1.48;;
20972;SDS011;10645;52.370;13.314;2023-08-30T04:42:24;1.30;;;0.98;;
20972;SDS011;10645;52.370;13.314;2023-08-30T04:44:51;0.88;;;0.80;;
20972;SDS011;10645;52.370;13.314;2023-08-30T04:47:20;1.33;;;1.23;;
20972;SDS011;10645;52.370;13.314;2023-08-30T04:49:52;1.70;;;1.35;;
20972;SDS011;10645;52.370;13.314;2023-08-30T04:52:19;1.73;;;1.30;;
20972;SDS011;10645;52.370;13.314;2023-08-30T04:54:45;1.55;;;1.30;;
20972;SDS011;10645;52.370;13.314;2023-08-30T04:57:12;1.52;;;1.05;;
20972;SDS011;10645;52.370;13.314;2023-08-30T04:59:40;1.80;;;1.45;;
20972;SDS011;10645;52.370;13.314;2023-08-30T05:02:06;1.25;;;0.90;;
20972;SDS011;10645;52.370;13.314;2023-08-30T05:04:38;2.17;;;1.95;;
20972;SDS011;10645;52.370;13.314;2023-08-30T05:07:05;3.22;;;1.92;;
20972;SDS011;10645;52.370;13.314;2023-08-30T05:09:31;2.60;;;1.42;;
20972;SDS011;10645;52.370;13.314;2023-08-30T05:11:58;2.78;;;2.42;;
20972;SDS011;10645;52.370;13.314;2023-08-30T05:14:24;1.83;;;1.73;;
20972;SDS011;10645;52.370;13.314;2023-08-30T05:16:50;1.67;;;1.58;;
20972;SDS011;10645;52.370;13.314;2023-08-30T05:19:16;1.67;;;1.55;;
20972;SDS011;10645;52.370;13.314;2023-08-30T05:21:43;1.90;;;1.30;;
20972;SDS011;10645;52.370;13.314;2023-08-30T05:24:09;2.05;;;1.85;;
20972;SDS011;10645;52.370;13.314;2023-08-30T05:26:35;2.13;;;1.92;;
20972;SDS011;10645;52.370;13.314;2023-08-30T05:29:02;1.50;;;1.20;;
20972;SDS011;10645;52.370;13.314;2023-08-30T05:31:28;1.60;;;1.50;;
20972;SDS011;10645;52.370;13.314;2023-08-30T05:34:01;2.13;;;1.45;;
20972;SDS011;10645;52.370;13.314;2023-08-30T05:36:59;1.50;;;1.40;;
20972;SDS011;10645;52.370;13.314;2023-08-30T05:39:51;2.55;;;1.67;;
20972;SDS011;10645;52.370;13.314;2023-08-30T05:42:17;1.38;;;1.27;;
20972;SDS011;10645;52.370;13.314;2023-08-30T05:44:43;2.67;;;1.88;;
20972;SDS011;10645;52.370;13.314;2023-08-30T05:47:09;5.72;;;2.10;;
20972;SDS011;10645;52.370;13.314;2023-08-30T05:49:40;3.15;;;1.95;;
20972;SDS011;10645;52.370;13.314;2023-08-30T05:52:06;1.58;;;1.42;;
20972;SDS011;10645;52.370;13.314;2023-08-30T05:54:32;2.13;;;1.88;;
20972;SDS011;10645;52.370;13.314;2023-08-30T05:56:59;1.73;;;1.55;;
20972;SDS011;10645;52.370;13.314;2023-08-30T05:59:26;2.05;;;1.48;;
20972;SDS011;10645;52.370;13.314;2023-08-30T06:01:53;2.08;;;1.63;;
20972;SDS011;10645;52.370;13.314;2023-08-30T06:04:19;1.92;;;1.70;;
20972;SDS011;10645;52.370;13.314;2023-08-30T06:06:45;1.73;;;1.63;;
20972;SDS011;10645;52.370;13.314;2023-08-30T06:09:12;1.98;;;1.77;;
20972;SDS011;10645;52.370;13.314;2023-08-30T06:11:38;2.15;;;1.90;;
20972;SDS011;10645;52.370;13.314;2023-08-30T06:14:04;2.53;;;1.85;;
20972;SDS011;10645;52.370;13.314;2023-08-30T06:16:30;1.65;;;1.50;;
20972;SDS011;10645;52.370;13.314;2023-08-30T06:18:57;2.30;;;1.70;;
20972;SDS011;10645;52.370;13.314;2023-08-30T06:21:25;2.20;;;1.80;;
20972;SDS011;10645;52.370;13.314;2023-08-30T06:23:51;2.22;;;1.88;;
20972;SDS011;10645;52.370;13.314;2023-08-30T06:26:18;2.55;;;2.17;;
20972;SDS011;10645;52.370;13.314;2023-08-30T06:28:44;1.60;;;1.50;;
20972;SDS011;10645;52.370;13.314;2023-08-30T06:31:10;1.58;;;1.40;;
20972;SDS011;10645;52.370;13.314;2023-08-30T06:33:36;1.80;;;1.70;;
20972;SDS011;10645;52.370;13.314;2023-08-30T06:36:04;2.15;;;1.95;;
20972;SDS011;10645;52.370;13.314;2023-08-30T06:38:30;3.00;;;2.63;;
20972;SDS011;10645;52.370;13.314;2023-08-30T06:41:00;2.50;;;1.60;;
20972;SDS011;10645;52.370;13.314;2023-08-30T06:43:26;2.50;;;2.25;;
20972;SDS011;10645;52.370;13.314;2023-08-30T06:45:52;1.27;;;1.17;;
20972;SDS011;10645;52.370;13.314;2023-08-30T06:48:18;2.30;;;1.45;;
20972;SDS011;10645;52.370;13.314;2023-08-30T06:50:45;2.63;;;2.35;;
20972;SDS011;10645;52.370;13.314;2023-08-30T06:53:11;1.63;;;1.52;;
20972;SDS011;10645;52.370;13.314;2023-08-30T06:55:37;1.67;;;1.58;;
20972;SDS011;10645;52.370;13.314;2023-08-30T06:58:03;3.22;;;2.22;;
20972;SDS011;10645;52.370;13.314;2023-08-30T07:00:30;2.22;;;1.95;;
20972;SDS011;10645;52.370;13.314;2023-08-30T07:02:56;2.78;;;2.05;;
20972;SDS011;10645;52.370;13.314;2023-08-30T07:05:22;1.88;;;1.77;;
20972;SDS011;10645;52.370;13.314;2023-08-30T07:07:48;2.13;;;1.58;;
20972;SDS011;10645;52.370;13.314;2023-08-30T07:10:14;2.15;;;1.70;;
20972;SDS011;10645;52.370;13.314;2023-08-30T07:12:41;2.00;;;1.63;;
20972;SDS011;10645;52.370;13.314;2023-08-30T07:15:07;1.45;;;1.35;;
20972;SDS011;10645;52.370;13.314;2023-08-30T07:17:33;1.50;;;1.33;;
20972;SDS011;10645;52.370;13.314;2023-08-30T07:19:59;1.60;;;1.50;;
20972;SDS011;10645;52.370;13.314;2023-08-30T07:22:26;5.45;;;1.45;;
20972;SDS011;10645;52.370;13.314;2023-08-30T07:24:52;1.45;;;1.33;;
20972;SDS011;10645;52.370;13.314;2023-08-30T07:27:18;1.52;;;1.30;;
20972;SDS011;10645;52.370;13.314;2023-08-30T07:29:44;1.42;;;1.30;;
20972;SDS011;10645;52.370;13.314;2023-08-30T07:32:10;1.25;;;1.17;;
20972;SDS011;10645;52.370;13.314;2023-08-30T07:34:36;1.52;;;0.95;;
20972;SDS011;10645;52.370;13.314;2023-08-30T07:37:03;1.13;;;1.13;;
20972;SDS011;10645;52.370;13.314;2023-08-30T07:39:29;3.20;;;1.67;;
20972;SDS011;10645;52.370;13.314;2023-08-30T07:41:55;1.88;;;0.98;;
20972;SDS011;10645;52.370;13.314;2023-08-30T07:44:21;1.58;;;1.48;;
20972;SDS011;10645;52.370;13.314;2023-08-30T07:46:47;0.93;;;0.88;;
20972;SDS011;10645;52.370;13.314;2023-08-30T07:49:13;9.35;;;1.52;;
20972;SDS011;10645;52.370;13.314;2023-08-30T07:51:39;2.25;;;1.40;;
20972;SDS011;10645;52.370;13.314;2023-08-30T07:54:05;1.55;;;1.45;;
20972;SDS011;10645;52.370;13.314;2023-08-30T07:56:31;1.10;;;1.00;;
20972;SDS011;10645;52.370;13.314;2023-08-30T07:58:57;1.27;;;1.17;;
20972;SDS011;10645;52.370;13.314;2023-08-30T08:01:24;1.25;;;1.15;;
20972;SDS011;10645;52.370;13.314;2023-08-30T08:03:50;1.75;;;0.80;;
20972;SDS011;10645;52.370;13.314;2023-08-30T08:06:16;1.35;;;1.13;;
20972;SDS011;10645;52.370;13.314;2023-08-30T08:08:43;4.60;;;1.40;;
20972;SDS011;10645;52.370;13.314;2023-08-30T08:11:09;0.90;;;0.90;;
20972;SDS011;10645;52.370;13.314;2023-08-30T08:13:36;1.42;;;1.33;;
20972;SDS011;10645;52.370;13.314;2023-08-30T08:16:02;1.13;;;1.02;;
20972;SDS011;10645;52.370;13.314;2023-08-30T08:18:28;1.40;;;1.23;;
20972;SDS011;10645;52.370;13.314;2023-08-30T08:20:54;2.05;;;1.52;;
20972;SDS011;10645;52.370;13.314;2023-08-30T08:23:20;1.35;;;1.25;;
20972;SDS011;10645;52.370;13.314;2023-08-30T08:25:46;1.52;;;1.42;;
20972;SDS011;10645;52.370;13.314;2023-08-30T08:28:12;1.30;;;1.20;;
20972;SDS011;10645;52.370;13.314;2023-08-30T08:30:38;2.17;;;1.42;;
20972;SDS011;10645;52.370;13.314;2023-08-30T08:33:05;0.75;;;0.75;;
20972;SDS011;10645;52.370;13.314;2023-08-30T08:35:31;0.80;;;0.70;;
20972;SDS011;10645;52.370;13.314;2023-08-30T08:37:57;0.82;;;0.82;;
20972;SDS011;10645;52.370;13.314;2023-08-30T08:40:23;1.13;;;1.02;;
20972;SDS011;10645;52.370;13.314;2023-08-30T08:42:49;1.60;;;1.05;;
20972;SDS011;10645;52.370;13.314;2023-08-30T08:45:16;0.93;;;0.90;;
20972;SDS011;10645;52.370;13.314;2023-08-30T08:47:45;0.70;;;0.70;;
20972;SDS011;10645;52.370;13.314;2023-08-30T08:50:11;2.25;;;1.42;;
20972;SDS011;10645;52.370;13.314;2023-08-30T08:52:38;0.98;;;0.88;;
20972;SDS011;10645;52.370;13.314;2023-08-30T08:55:04;1.40;;;1.30;;
20972;SDS011;10645;52.370;13.314;2023-08-30T08:57:30;0.70;;;0.60;;
20972;SDS011;10645;52.370;13.314;2023-08-30T08:59:59;0.80;;;0.73;;
20972;SDS011;10645;52.370;13.314;2023-08-30T09:02:25;2.65;;;1.65;;
20972;SDS011;10645;52.370;13.314;2023-08-30T09:04:52;1.15;;;0.90;;
20972;SDS011;10645;52.370;13.314;2023-08-30T09:07:18;1.35;;;1.25;;
20972;SDS011;10645;52.370;13.314;2023-08-30T09:09:45;0.93;;;0.93;;
20972;SDS011;10645;52.370;13.314;2023-08-30T09:12:12;1.27;;;1.17;;
20972;SDS011;10645;52.370;13.314;2023-08-30T09:14:38;3.33;;;0.80;;
20972;SDS011;10645;52.370;13.314;2023-08-30T09:17:04;1.17;;;0.82;;
20972;SDS011;10645;52.370;13.314;2023-08-30T09:19:30;5.35;;;1.88;;
20972;SDS011;10645;52.370;13.314;2023-08-30T09:21:57;1.48;;;1.38;;
20972;SDS011;10645;52.370;13.314;2023-08-30T09:24:24;1.38;;;1.00;;
20972;SDS011;10645;52.370;13.314;2023-08-30T09:26:52;1.10;;;1.00;;
20972;SDS011;10645;52.370;13.314;2023-08-30T09:29:21;0.75;;;0.75;;
20972;SDS011;10645;52.370;13.314;2023-08-30T09:31:52;0.55;;;0.55;;
20972;SDS011;10645;52.370;13.314;2023-08-30T09:34:24;0.90;;;0.90;;
20972;SDS011;10645;52.370;13.314;2023-08-30T09:36:51;1.13;;;1.02;;
20972;SDS011;10645;52.370;13.314;2023-08-30T09:39:17;1.20;;;1.10;;
20972;SDS011;10645;52.370;13.314;2023-08-30T09:41:44;1.98;;;1.88;;
20972;SDS011;10645;52.370;13.314;2023-08-30T09:44:12;1.75;;;1.10;;
20972;SDS011;10645;52.370;13.314;2023-08-30T09:46:42;1.63;;;1.15;;
20972;SDS011;10645;52.370;13.314;2023-08-30T09:49:18;1.85;;;1.00;;
20972;SDS011;10645;52.370;13.314;2023-08-30T09:51:46;0.88;;;0.77;;
20972;SDS011;10645;52.370;13.314;2023-08-30T09:54:15;0.82;;;0.82;;
20972;SDS011;10645;52.370;13.314;2023-08-30T09:56:43;0.68;;;0.63;;
20972;SDS011;10645;52.370;13.314;2023-08-30T09:59:10;1.33;;;1.23;;
20972;SDS011;10645;52.370;13.314;2023-08-30T10:01:38;1.20;;;1.20;;
20972;SDS011;10645;52.370;13.314;2023-08-30T10:04:05;0.88;;;0.88;;
20972;SDS011;10645;52.370;13.314;2023-08-30T10:06:33;1.05;;;0.90;;
20972;SDS011;10645;52.370;13.314;2023-08-30T10:09:01;2.00;;;1.00;;
20972;SDS011;10645;52.370;13.314;2023-08-30T10:11:29;0.65;;;0.65;;
20972;SDS011;10645;52.370;13.314;2023-08-30T10:13:56;1.08;;;0.73;;
20972;SDS011;10645;52.370;13.314;2023-08-30T10:16:24;1.50;;;0.80;;
20972;SDS011;10645;52.370;13.314;2023-08-30T10:18:53;1.10;;;1.10;;
20972;SDS011;10645;52.370;13.314;2023-08-30T10:21:23;1.45;;;1.10;;
20972;SDS011;10645;52.370;13.314;2023-08-30T10:23:49;4.80;;;1.05;;
20972;SDS011;10645;52.370;13.314;2023-08-30T10:26:22;1.00;;;0.73;;
20972;SDS011;10645;52.370;13.314;2023-08-30T10:28:51;1.55;;;0.70;;
20972;SDS011;10645;52.370;13.314;2023-08-30T10:31:19;1.67;;;0.75;;
20972;SDS011;10645;52.370;13.314;2023-08-30T10:33:47;0.70;;;0.70;;
20972;SDS011;10645;52.370;13.314;2023-08-30T10:36:20;0.82;;;0.82;;
20972;SDS011;10645;52.370;13.314;2023-08-30T10:38:50;1.50;;;1.40;;
20972;SDS011;10645;52.370;13.314;2023-08-30T10:41:24;0.82;;;0.82;;
20972;SDS011;10645;52.370;13.314;2023-08-30T10:43:52;0.70;;;0.70;;
20972;SDS011;10645;52.370;13.314;2023-08-30T10:46:36;1.25;;;0.90;;
20972;SDS011;10645;52.370;13.314;2023-08-30T10:49:11;1.38;;;1.05;;
20972;SDS011;10645;52.370;13.314;2023-08-30T10:51:40;1.55;;;1.45;;
20972;SDS011;10645;52.370;13.314;2023-08-30T10:54:09;1.27;;;1.17;;
20972;SDS011;10645;52.370;13.314;2023-08-30T10:56:45;1.00;;;1.00;;
20972;SDS011;10645;52.370;13.314;2023-08-30T10:59:17;1.00;;;0.85;;
20972;SDS011;10645;52.370;13.314;2023-08-30T11:01:44;1.42;;;1.08;;
20972;SDS011;10645;52.370;13.314;2023-08-30T11:04:12;1.02;;;0.93;;
20972;SDS011;10645;52.370;13.314;2023-08-30T11:06:43;0.93;;;0.90;;
20972;SDS011;10645;52.370;13.314;2023-08-30T11:09:14;1.73;;;1.20;;
20972;SDS011;10645;52.370;13.314;2023-08-30T11:11:48;1.10;;;0.95;;
20972;SDS011;10645;52.370;13.314;2023-08-30T11:14:15;0.70;;;0.70;;
20972;SDS011;10645;52.370;13.314;2023-08-30T11:16:43;1.13;;;1.00;;
20972;SDS011;10645;52.370;13.314;2023-08-30T11:19:10;1.13;;;1.02;;
20972;SDS011;10645;52.370;13.314;2023-08-30T11:21:38;0.88;;;0.80;;
20972;SDS011;10645;52.370;13.314;2023-08-30T11:24:05;1.25;;;0.80;;
20972;SDS011;10645;52.370;13.314;2023-08-30T11:26:33;0.90;;;0.90;;
20972;SDS011;10645;52.370;13.314;2023-08-30T11:29:05;0.68;;;0.65;;
20972;SDS011;10645;52.370;13.314;2023-08-30T11:31:35;1.13;;;1.02;;
20972;SDS011;10645;52.370;13.314;2023-08-30T11:34:01;1.00;;;0.85;;
20972;SDS011;10645;52.370;13.314;2023-08-30T11:36:29;1.02;;;0.98;;
20972;SDS011;10645;52.370;13.314;2023-08-30T11:38:57;2.42;;;0.80;;
20972;SDS011;10645;52.370;13.314;2023-08-30T11:41:24;0.90;;;0.85;;
20972;SDS011;10645;52.370;13.314;2023-08-30T11:43:51;0.73;;;0.73;;
20972;SDS011;10645;52.370;13.314;2023-08-30T11:46:17;1.33;;;1.23;;
20972;SDS011;10645;52.370;13.314;2023-08-30T11:48:44;0.93;;;0.85;;
20972;SDS011;10645;52.370;13.314;2023-08-30T11:51:11;2.17;;;1.00;;
20972;SDS011;10645;52.370;13.314;2023-08-30T11:53:39;1.50;;;0.98;;
20972;SDS011;10645;52.370;13.314;2023-08-30T11:56:06;1.05;;;0.63;;
20972;SDS011;10645;52.370;13.314;2023-08-30T11:58:33;0.90;;;0.90;;
20972;SDS011;10645;52.370;13.314;2023-08-30T12:01:00;1.27;;;1.13;;
20972;SDS011;10645;52.370;13.314;2023-08-30T12:03:27;0.80;;;0.80;;
20972;SDS011;10645;52.370;13.314;2023-08-30T12:05:54;0.60;;;0.60;;
20972;SDS011;10645;52.370;13.314;2023-08-30T12:08:21;0.70;;;0.70;;
20972;SDS011;10645;52.370;13.314;2023-08-30T12:10:50;0.75;;;0.73;;
20972;SDS011;10645;52.370;13.314;2023-08-30T12:13:22;0.88;;;0.88;;
20972;SDS011;10645;52.370;13.314;2023-08-30T12:15:53;2.75;;;1.55;;
20972;SDS011;10645;52.370;13.314;2023-08-30T12:18:20;0.75;;;0.75;;
20972;SDS011;10645;52.370;13.314;2023-08-30T12:20:54;0.77;;;0.77;;
20972;SDS011;10645;52.370;13.314;2023-08-30T12:23:29;1.08;;;1.08;;
20972;SDS011;10645;52.370;13.314;2023-08-30T12:26:00;2.03;;;1.70;;
20972;SDS011;10645;52.370;13.314;2023-08-30T12:28:27;0.88;;;0.88;;
20972;SDS011;10645;52.370;13.314;2023-08-30T12:30:55;1.05;;;0.70;;
20972;SDS011;10645;52.370;13.314;2023-08-30T12:33:21;1.13;;;1.05;;
20972;SDS011;10645;52.370;13.314;2023-08-30T12:35:47;4.57;;;1.40;;
20972;SDS011;10645;52.370;13.314;2023-08-30T12:38:14;0.55;;;0.55;;
20972;SDS011;10645;52.370;13.314;2023-08-30T12:40:44;1.23;;;1.02;;
20972;SDS011;10645;52.370;13.314;2023-08-30T12:43:10;1.17;;;1.08;;
20972;SDS011;10645;52.370;13.314;2023-08-30T12:45:38;2.72;;;1.27;;
20972;SDS011;10645;52.370;13.314;2023-08-30T12:48:04;1.52;;;0.77;;
20972;SDS011;10645;52.370;13.314;2023-08-30T12:50:31;2.60;;;0.85;;
20972;SDS011;10645;52.370;13.314;2023-08-30T12:52:57;0.95;;;0.95;;
20972;SDS011;10645;52.370;13.314;2023-08-30T12:55:23;1.20;;;1.10;;
20972;SDS011;10645;52.370;13.314;2023-08-30T12:57:49;1.02;;;0.85;;
20972;SDS011;10645;52.370;13.314;2023-08-30T13:00:15;1.20;;;1.10;;
20972;SDS011;10645;52.370;13.314;2023-08-30T13:02:41;0.80;;;0.80;;
20972;SDS011;10645;52.370;13.314;2023-08-30T13:05:07;1.55;;;0.98;;
20972;SDS011;10645;52.370;13.314;2023-08-30T13:07:33;0.73;;;0.73;;
20972;SDS011;10645;52.370;13.314;2023-08-30T13:10:00;1.10;;;1.00;;
20972;SDS011;10645;52.370;13.314;2023-08-30T13:12:26;1.05;;;1.00;;
20972;SDS011;10645;52.370;13.314;2023-08-30T13:14:52;0.73;;;0.73;;
20972;SDS011;10645;52.370;13.314;2023-08-30T13:17:18;1.20;;;0.90;;
20972;SDS011;10645;52.370;13.314;2023-08-30T13:19:44;1.02;;;0.90;;
20972;SDS011;10645;52.370;13.314;2023-08-30T13:22:10;0.88;;;0.75;;
20972;SDS011;10645;52.370;13.314;2023-08-30T13:24:36;1.00;;;1.00;;
20972;SDS011;10645;52.370;13.314;2023-08-30T13:27:03;1.02;;;0.90;;
20972;SDS011;10645;52.370;13.314;2023-08-30T13:29:29;1.15;;;0.63;;
20972;SDS011;10645;52.370;13.314;2023-08-30T13:31:55;0.88;;;0.88;;
20972;SDS011;10645;52.370;13.314;2023-08-30T13:34:21;0.90;;;0.90;;
20972;SDS011;10645;52.370;13.314;2023-08-30T13:36:47;1.13;;;0.80;;
20972;SDS011;10645;52.370;13.314;2023-08-30T13:39:13;1.33;;;1.23;;
20972;SDS011;10645;52.370;13.314;2023-08-30T13:41:40;1.23;;;1.02;;
20972;SDS011;10645;52.370;13.314;2023-08-30T13:44:06;1.00;;;1.00;;
20972;SDS011;10645;52.370;13.314;2023-08-30T13:46:32;0.80;;;0.80;;
20972;SDS011;10645;52.370;13.314;2023-08-30T13:48:59;0.60;;;0.60;;
20972;SDS011;10645;52.370;13.314;2023-08-30T13:51:25;1.08;;;0.90;;
20972;SDS011;10645;52.370;13.314;2023-08-30T13:53:52;0.80;;;0.80;;
20972;SDS011;10645;52.370;13.314;2023-08-30T13:56:18;1.15;;;1.05;;
20972;SDS011;10645;52.370;13.314;2023-08-30T13:58:45;1.17;;;1.08;;
20972;SDS011;10645;52.370;13.314;2023-08-30T14:01:11;1.48;;;0.90;;
20972;SDS011;10645;52.370;13.314;2023-08-30T14:03:38;0.80;;;0.80;;
20972;SDS011;10645;52.370;13.314;2023-08-30T14:06:04;1.17;;;1.17;;
20972;SDS011;10645;52.370;13.314;2023-08-30T14:08:30;1.05;;;1.00;;
20972;SDS011;10645;52.370;13.314;2023-08-30T14:10:57;1.58;;;1.48;;
20972;SDS011;10645;52.370;13.314;2023-08-30T14:13:23;0.65;;;0.65;;
20972;SDS011;10645;52.370;13.314;2023-08-30T14:15:49;1.10;;;1.00;;
20972;SDS011;10645;52.370;13.314;2023-08-30T14:18:16;1.40;;;1.30;;
20972;SDS011;10645;52.370;13.314;2023-08-30T14:20:42;2.03;;;0.95;;
20972;SDS011;10645;52.370;13.314;2023-08-30T14:23:09;0.70;;;0.70;;
20972;SDS011;10645;52.370;13.314;2023-08-30T14:25:35;0.93;;;0.70;;
20972;SDS011;10645;52.370;13.314;2023-08-30T14:28:01;1.73;;;1.33;;
20972;SDS011;10645;52.370;13.314;2023-08-30T14:30:29;0.93;;;0.85;;
20972;SDS011;10645;52.370;13.314;2023-08-30T14:32:56;0.80;;;0.80;;
20972;SDS011;10645;52.370;13.314;2023-08-30T14:35:22;0.85;;;0.70;;
20972;SDS011;10645;52.370;13.314;2023-08-30T14:37:50;1.20;;;0.60;;
20972;SDS011;10645;52.370;13.314;2023-08-30T14:40:19;1.27;;;1.23;;